sensor_id;sensor_type;location;lat;lon;timestamp;pressure;altitude;pressure_sealevel;temperature;humidity
72486;BME280;60509;47.308;-122.428;2023-05-14T00:00:57;101004.61;;;17.14;25.40
72486;BME280;60509;47.308;-122.428;2023-05-14T00:03:23;101003.33;;;17.05;25.62
72486;BME280;60509;47.308;-122.428;2023-05-14T00:05:49;100992.18;;;17.03;25.50
72486;BME280;60509;47.308;-122.428;2023-05-14T00:08:15;100993.50;;;17.19;25.32
72486;BME280;60509;47.308;-122.428;2023-05-14T00:10:40;100986.83;;;16.31;25.62
72486;BME280;60509;47.308;-122.428;2023-05-14T00:13:06;100992.41;;;16.69;25.46
72486;BME280;60509;47.308;-122.428;2023-05-14T00:15:32;100989.61;;;17.40;24.99
72486;BME280;60509;47.308;-122.428;2023-05-14T00:17:59;100986.84;;;16.73;25.18
72486;BME280;60509;47.308;-122.428;2023-05-14T00:20:24;100989.21;;;17.30;24.80
72486;BME280;60509;47.308;-122.428;2023-05-14T00:22:50;100982.70;;;16.88;24.95
72486;BME280;60509;47.308;-122.428;2023-05-14T00:25:16;100981.96;;;17.07;24.68
72486;BME280;60509;47.308;-122.428;2023-05-14T00:27:42;100970.32;;;16.39;24.80
72486;BME280;60509;47.308;-122.428;2023-05-14T00:30:08;100976.94;;;16.98;24.51
72486;BME280;60509;47.308;-122.428;2023-05-14T00:32:33;100974.84;;;16.51;24.56
72486;BME280;60509;47.308;-122.428;2023-05-14T00:34:59;100976.40;;;16.75;24.43
72486;BME280;60509;47.308;-122.428;2023-05-14T00:37:25;100971.13;;;16.82;24.22
72486;BME280;60509;47.308;-122.428;2023-05-14T00:39:51;100970.39;;;16.60;24.28
72486;BME280;60509;47.308;-122.428;2023-05-14T00:42:23;100962.35;;;16.92;24.36
72486;BME280;60509;47.308;-122.428;2023-05-14T00:44:43;100967.89;;;16.31;24.42
72486;BME280;60509;47.308;-122.428;2023-05-14T00:47:09;100961.69;;;16.81;24.18
72486;BME280;60509;47.308;-122.428;2023-05-14T00:49:34;100960.85;;;16.77;24.13
72486;BME280;60509;47.308;-122.428;2023-05-14T00:52:00;100956.81;;;16.99;23.97
72486;BME280;60509;47.308;-122.428;2023-05-14T00:54:26;100957.59;;;16.36;24.40
72486;BME280;60509;47.308;-122.428;2023-05-14T00:56:52;100959.39;;;16.52;23.97
72486;BME280;60509;47.308;-122.428;2023-05-14T00:59:18;100948.44;;;16.19;24.14
72486;BME280;60509;47.308;-122.428;2023-05-14T01:01:44;100941.91;;;17.35;23.31
72486;BME280;60509;47.308;-122.428;2023-05-14T01:04:10;100945.31;;;16.61;23.61
72486;BME280;60509;47.308;-122.428;2023-05-14T01:06:43;100940.13;;;16.32;23.86
72486;BME280;60509;47.308;-122.428;2023-05-14T01:09:08;100941.54;;;15.94;23.75
72486;BME280;60509;47.308;-122.428;2023-05-14T01:11:31;100939.07;;;17.04;23.31
72486;BME280;60509;47.308;-122.428;2023-05-14T01:14:01;100938.01;;;16.77;23.32
72486;BME280;60509;47.308;-122.428;2023-05-14T01:16:19;100935.70;;;16.60;23.48
72486;BME280;60509;47.308;-122.428;2023-05-14T01:18:46;100930.29;;;16.84;23.37
72486;BME280;60509;47.308;-122.428;2023-05-14T01:21:35;100932.79;;;17.02;22.96
72486;BME280;60509;47.308;-122.428;2023-05-14T01:23:36;100924.00;;;19.09;22.36
72486;BME280;60509;47.308;-122.428;2023-05-14T01:26:02;100929.57;;;19.70;22.05
72486;BME280;60509;47.308;-122.428;2023-05-14T01:28:32;100933.51;;;17.66;23.39
72486;BME280;60509;47.308;-122.428;2023-05-14T01:30:58;100934.87;;;17.20;23.80
72486;BME280;60509;47.308;-122.428;2023-05-14T01:33:21;100933.93;;;15.90;24.36
72486;BME280;60509;47.308;-122.428;2023-05-14T01:35:46;100922.99;;;16.39;24.14
72486;BME280;60509;47.308;-122.428;2023-05-14T01:38:14;100931.81;;;16.33;24.18
72486;BME280;60509;47.308;-122.428;2023-05-14T01:40:38;100927.21;;;16.46;24.11
72486;BME280;60509;47.308;-122.428;2023-05-14T01:43:04;100925.72;;;16.13;24.26
72486;BME280;60509;47.308;-122.428;2023-05-14T01:45:30;100931.39;;;15.96;24.24
72486;BME280;60509;47.308;-122.428;2023-05-14T01:47:55;100928.96;;;15.53;24.28
72486;BME280;60509;47.308;-122.428;2023-05-14T01:50:21;100924.47;;;16.15;23.93
72486;BME280;60509;47.308;-122.428;2023-05-14T01:52:47;100922.77;;;15.56;24.21
72486;BME280;60509;47.308;-122.428;2023-05-14T01:55:13;100926.30;;;16.13;23.91
72486;BME280;60509;47.308;-122.428;2023-05-14T01:57:38;100929.43;;;15.58;24.05
72486;BME280;60509;47.308;-122.428;2023-05-14T02:00:05;100940.86;;;16.03;23.66
72486;BME280;60509;47.308;-122.428;2023-05-14T02:02:30;100930.84;;;16.36;23.56
72486;BME280;60509;47.308;-122.428;2023-05-14T02:04:56;100938.77;;;16.19;23.35
72486;BME280;60509;47.308;-122.428;2023-05-14T02:07:22;100928.34;;;15.92;23.80
72486;BME280;60509;47.308;-122.428;2023-05-14T02:09:48;100928.20;;;15.87;23.79
72486;BME280;60509;47.308;-122.428;2023-05-14T02:12:14;100926.11;;;16.02;23.68
72486;BME280;60509;47.308;-122.428;2023-05-14T02:14:40;100930.31;;;16.22;23.59
72486;BME280;60509;47.308;-122.428;2023-05-14T02:17:06;100930.06;;;15.59;23.88
72486;BME280;60509;47.308;-122.428;2023-05-14T02:19:32;100924.54;;;16.94;23.93
72486;BME280;60509;47.308;-122.428;2023-05-14T02:21:59;100918.26;;;19.20;22.33
72486;BME280;60509;47.308;-122.428;2023-05-14T02:24:23;100923.53;;;18.03;23.25
72486;BME280;60509;47.308;-122.428;2023-05-14T02:26:49;100921.91;;;15.66;24.45
72486;BME280;60509;47.308;-122.428;2023-05-14T02:29:15;100925.30;;;15.82;24.63
72486;BME280;60509;47.308;-122.428;2023-05-14T02:31:41;100922.77;;;16.37;24.32
72486;BME280;60509;47.308;-122.428;2023-05-14T02:34:07;100926.67;;;16.08;24.29
72486;BME280;60509;47.308;-122.428;2023-05-14T02:36:33;100922.92;;;15.74;24.39
72486;BME280;60509;47.308;-122.428;2023-05-14T02:38:59;100924.61;;;15.99;24.00
72486;BME280;60509;47.308;-122.428;2023-05-14T02:41:25;100922.85;;;15.43;24.22
72486;BME280;60509;47.308;-122.428;2023-05-14T02:43:51;100921.09;;;15.30;24.33
72486;BME280;60509;47.308;-122.428;2023-05-14T02:46:16;100921.67;;;15.41;23.96
72486;BME280;60509;47.308;-122.428;2023-05-14T02:48:42;100921.71;;;15.72;23.84
72486;BME280;60509;47.308;-122.428;2023-05-14T02:51:08;100922.60;;;17.58;23.28
72486;BME280;60509;47.308;-122.428;2023-05-14T02:53:34;100914.77;;;19.13;22.34
72486;BME280;60509;47.308;-122.428;2023-05-14T02:56:00;100919.83;;;18.21;23.29
72486;BME280;60509;47.308;-122.428;2023-05-14T02:58:26;100925.96;;;16.24;24.25
72486;BME280;60509;47.308;-122.428;2023-05-14T03:00:52;100924.18;;;16.68;23.99
72486;BME280;60509;47.308;-122.428;2023-05-14T03:03:18;100925.83;;;15.13;24.81
72486;BME280;60509;47.308;-122.428;2023-05-14T03:05:43;100921.74;;;15.48;24.77
72486;BME280;60509;47.308;-122.428;2023-05-14T03:08:09;100923.10;;;15.31;24.56
72486;BME280;60509;47.308;-122.428;2023-05-14T03:10:35;100925.87;;;15.23;24.59
72486;BME280;60509;47.308;-122.428;2023-05-14T03:13:01;100924.99;;;15.44;24.40
72486;BME280;60509;47.308;-122.428;2023-05-14T03:15:27;100922.46;;;16.32;24.26
72486;BME280;60509;47.308;-122.428;2023-05-14T03:17:53;100924.99;;;18.76;22.71
72486;BME280;60509;47.308;-122.428;2023-05-14T03:20:19;100928.87;;;17.75;23.54
72486;BME280;60509;47.308;-122.428;2023-05-14T03:22:45;100924.88;;;16.08;24.54
72486;BME280;60509;47.308;-122.428;2023-05-14T03:25:10;100923.31;;;15.49;24.72
72486;BME280;60509;47.308;-122.428;2023-05-14T03:27:36;100928.79;;;14.50;25.13
72486;BME280;60509;47.308;-122.428;2023-05-14T03:30:02;100926.50;;;14.72;25.05
72486;BME280;60509;47.308;-122.428;2023-05-14T03:32:28;100928.30;;;14.71;24.74
72486;BME280;60509;47.308;-122.428;2023-05-14T03:34:54;100929.26;;;14.59;24.69
72486;BME280;60509;47.308;-122.428;2023-05-14T03:37:20;100931.29;;;15.17;25.31
72486;BME280;60509;47.308;-122.428;2023-05-14T03:39:46;100931.49;;;16.91;23.88
72486;BME280;60509;47.308;-122.428;2023-05-14T03:42:12;100927.90;;;18.64;23.33
72486;BME280;60509;47.308;-122.428;2023-05-14T03:44:38;100933.24;;;17.16;24.59
72486;BME280;60509;47.308;-122.428;2023-05-14T03:47:04;100938.97;;;15.37;25.45
72486;BME280;60509;47.308;-122.428;2023-05-14T03:49:29;100942.04;;;15.72;25.22
72486;BME280;60509;47.308;-122.428;2023-05-14T03:51:55;100941.19;;;14.60;25.55
72486;BME280;60509;47.308;-122.428;2023-05-14T03:54:21;100948.73;;;14.34;26.02
72486;BME280;60509;47.308;-122.428;2023-05-14T03:56:47;100953.46;;;16.96;24.20
72486;BME280;60509;47.308;-122.428;2023-05-14T03:59:13;100954.81;;;16.87;24.78
72486;BME280;60509;47.308;-122.428;2023-05-14T04:01:39;100952.32;;;16.95;24.56
72486;BME280;60509;47.308;-122.428;2023-05-14T04:04:05;100953.21;;;16.53;25.01
72486;BME280;60509;47.308;-122.428;2023-05-14T04:06:31;100949.35;;;14.92;25.81
72486;BME280;60509;47.308;-122.428;2023-05-14T04:08:56;100959.15;;;14.37;26.06
72486;BME280;60509;47.308;-122.428;2023-05-14T04:11:22;100963.89;;;14.64;25.73
72486;BME280;60509;47.308;-122.428;2023-05-14T04:13:48;100968.98;;;15.29;25.77
72486;BME280;60509;47.308;-122.428;2023-05-14T04:16:14;100978.00;;;17.36;24.72
72486;BME280;60509;47.308;-122.428;2023-05-14T04:18:40;100979.72;;;17.63;24.52
72486;BME280;60509;47.308;-122.428;2023-05-14T04:21:06;100984.85;;;16.86;24.96
72486;BME280;60509;47.308;-122.428;2023-05-14T04:23:32;100986.99;;;17.39;24.55
72486;BME280;60509;47.308;-122.428;2023-05-14T04:25:57;100988.25;;;15.77;25.94
72486;BME280;60509;47.308;-122.428;2023-05-14T04:28:23;100989.97;;;14.58;26.74
72486;BME280;60509;47.308;-122.428;2023-05-14T04:30:49;100986.49;;;14.53;26.51
72486;BME280;60509;47.308;-122.428;2023-05-14T04:33:15;100987.78;;;14.34;27.44
72486;BME280;60509;47.308;-122.428;2023-05-14T04:35:42;100988.18;;;16.14;25.81
72486;BME280;60509;47.308;-122.428;2023-05-14T04:38:07;100990.75;;;18.04;24.62
72486;BME280;60509;47.308;-122.428;2023-05-14T04:40:33;100983.25;;;18.10;24.57
72486;BME280;60509;47.308;-122.428;2023-05-14T04:42:59;100990.91;;;18.02;24.61
72486;BME280;60509;47.308;-122.428;2023-05-14T04:45:25;100998.90;;;18.22;24.58
72486;BME280;60509;47.308;-122.428;2023-05-14T04:47:50;100995.91;;;15.50;26.83
72486;BME280;60509;47.308;-122.428;2023-05-14T04:50:16;100991.75;;;14.93;27.17
72486;BME280;60509;47.308;-122.428;2023-05-14T04:52:42;100993.38;;;13.61;27.60
72486;BME280;60509;47.308;-122.428;2023-05-14T04:55:09;100990.59;;;15.20;27.44
72486;BME280;60509;47.308;-122.428;2023-05-14T04:57:34;100991.11;;;17.46;25.34
72486;BME280;60509;47.308;-122.428;2023-05-14T05:00:00;100995.17;;;18.08;24.97
72486;BME280;60509;47.308;-122.428;2023-05-14T05:02:26;100991.92;;;18.30;24.78
72486;BME280;60509;47.308;-122.428;2023-05-14T05:04:52;100987.81;;;18.72;24.65
72486;BME280;60509;47.308;-122.428;2023-05-14T05:07:18;100987.78;;;18.53;24.66
72486;BME280;60509;47.308;-122.428;2023-05-14T05:09:43;100996.05;;;16.24;26.65
72486;BME280;60509;47.308;-122.428;2023-05-14T05:12:09;100988.75;;;14.92;27.23
72486;BME280;60509;47.308;-122.428;2023-05-14T05:14:35;100988.98;;;14.11;27.69
72486;BME280;60509;47.308;-122.428;2023-05-14T05:17:01;100988.09;;;15.14;27.65
72486;BME280;60509;47.308;-122.428;2023-05-14T05:19:27;100981.75;;;17.22;25.73
72486;BME280;60509;47.308;-122.428;2023-05-14T05:21:53;100990.94;;;17.58;25.44
72486;BME280;60509;47.308;-122.428;2023-05-14T05:24:19;100981.76;;;18.37;25.01
72486;BME280;60509;47.308;-122.428;2023-05-14T05:26:45;100980.97;;;18.10;25.26
72486;BME280;60509;47.308;-122.428;2023-05-14T05:29:11;100978.34;;;18.25;25.35
72486;BME280;60509;47.308;-122.428;2023-05-14T05:31:37;100978.90;;;18.02;25.40
72486;BME280;60509;47.308;-122.428;2023-05-14T05:34:02;100971.82;;;16.33;26.60
72486;BME280;60509;47.308;-122.428;2023-05-14T05:36:28;100975.44;;;14.49;27.61
72486;BME280;60509;47.308;-122.428;2023-05-14T05:38:54;100972.46;;;13.90;27.86
72486;BME280;60509;47.308;-122.428;2023-05-14T05:41:20;100978.76;;;14.89;27.85
72486;BME280;60509;47.308;-122.428;2023-05-14T05:43:46;100978.89;;;17.62;25.80
72486;BME280;60509;47.308;-122.428;2023-05-14T05:46:12;100973.09;;;18.04;25.57
72486;BME280;60509;47.308;-122.428;2023-05-14T05:48:37;100972.46;;;17.77;25.46
72486;BME280;60509;47.308;-122.428;2023-05-14T05:51:04;100971.39;;;17.59;25.77
72486;BME280;60509;47.308;-122.428;2023-05-14T05:53:29;100973.49;;;17.96;25.49
72486;BME280;60509;47.308;-122.428;2023-05-14T05:55:55;100971.29;;;18.60;25.30
72486;BME280;60509;47.308;-122.428;2023-05-14T05:58:21;100968.87;;;18.40;25.49
72486;BME280;60509;47.308;-122.428;2023-05-14T06:00:47;100966.96;;;15.60;27.55
72486;BME280;60509;47.308;-122.428;2023-05-14T06:03:13;100969.78;;;14.21;28.00
72486;BME280;60509;47.308;-122.428;2023-05-14T06:05:39;100969.34;;;13.95;27.98
72486;BME280;60509;47.308;-122.428;2023-05-14T06:08:05;100973.78;;;16.85;26.49
72486;BME280;60509;47.308;-122.428;2023-05-14T06:10:31;100971.98;;;17.99;25.86
72486;BME280;60509;47.308;-122.428;2023-05-14T06:12:57;100966.68;;;17.96;25.97
72486;BME280;60509;47.308;-122.428;2023-05-14T06:15:23;100964.78;;;18.15;25.72
72486;BME280;60509;47.308;-122.428;2023-05-14T06:17:48;100963.33;;;17.87;25.93
72486;BME280;60509;47.308;-122.428;2023-05-14T06:20:14;100967.19;;;18.55;25.62
72486;BME280;60509;47.308;-122.428;2023-05-14T06:22:40;100964.99;;;16.97;26.49
72486;BME280;60509;47.308;-122.428;2023-05-14T06:25:07;100963.95;;;15.33;27.41
72486;BME280;60509;47.308;-122.428;2023-05-14T06:27:32;100958.03;;;14.32;28.01
72486;BME280;60509;47.308;-122.428;2023-05-14T06:29:58;100959.30;;;15.21;27.88
72486;BME280;60509;47.308;-122.428;2023-05-14T06:32:24;100954.18;;;17.64;26.08
72486;BME280;60509;47.308;-122.428;2023-05-14T06:34:50;100954.63;;;17.97;26.00
72486;BME280;60509;47.308;-122.428;2023-05-14T06:37:15;100958.17;;;18.12;25.96
72486;BME280;60509;47.308;-122.428;2023-05-14T06:39:41;100954.35;;;18.08;25.87
72486;BME280;60509;47.308;-122.428;2023-05-14T06:42:07;100948.05;;;18.52;25.77
72486;BME280;60509;47.308;-122.428;2023-05-14T06:44:33;100948.83;;;18.25;25.75
72486;BME280;60509;47.308;-122.428;2023-05-14T06:46:59;100951.25;;;17.08;26.50
72486;BME280;60509;47.308;-122.428;2023-05-14T06:49:25;100951.29;;;16.12;27.38
72486;BME280;60509;47.308;-122.428;2023-05-14T06:51:51;100952.18;;;14.20;27.91
72486;BME280;60509;47.308;-122.428;2023-05-14T06:54:17;100954.63;;;15.39;27.50
72486;BME280;60509;47.308;-122.428;2023-05-14T06:56:43;100944.69;;;17.78;25.91
72486;BME280;60509;47.308;-122.428;2023-05-14T06:59:08;100942.06;;;18.10;25.55
72486;BME280;60509;47.308;-122.428;2023-05-14T07:01:34;100944.85;;;17.86;25.78
72486;BME280;60509;47.308;-122.428;2023-05-14T07:04:00;100943.19;;;17.94;25.91
72486;BME280;60509;47.308;-122.428;2023-05-14T07:06:26;100942.05;;;18.26;25.81
72486;BME280;60509;47.308;-122.428;2023-05-14T07:08:52;100939.78;;;17.36;26.34
72486;BME280;60509;47.308;-122.428;2023-05-14T07:11:18;100941.41;;;18.13;25.97
72486;BME280;60509;47.308;-122.428;2023-05-14T07:13:44;100943.50;;;17.65;26.14
72486;BME280;60509;47.308;-122.428;2023-05-14T07:16:10;100943.12;;;15.33;27.76
72486;BME280;60509;47.308;-122.428;2023-05-14T07:18:36;100942.97;;;14.26;28.25
72486;BME280;60509;47.308;-122.428;2023-05-14T07:21:02;100946.19;;;15.11;28.52
72486;BME280;60509;47.308;-122.428;2023-05-14T07:23:28;100947.89;;;17.41;26.36
72486;BME280;60509;47.308;-122.428;2023-05-14T07:25:54;100943.21;;;18.47;26.12
72486;BME280;60509;47.308;-122.428;2023-05-14T07:28:20;100947.46;;;18.12;26.05
72486;BME280;60509;47.308;-122.428;2023-05-14T07:30:45;100944.51;;;18.38;26.11
72486;BME280;60509;47.308;-122.428;2023-05-14T07:33:11;100945.18;;;18.56;25.98
72486;BME280;60509;47.308;-122.428;2023-05-14T07:35:37;100942.20;;;18.12;26.00
72486;BME280;60509;47.308;-122.428;2023-05-14T07:38:03;100939.86;;;18.57;25.94
72486;BME280;60509;47.308;-122.428;2023-05-14T07:40:29;100945.96;;;18.38;26.08
72486;BME280;60509;47.308;-122.428;2023-05-14T07:42:55;100941.41;;;18.59;25.97
72486;BME280;60509;47.308;-122.428;2023-05-14T07:45:21;100946.99;;;18.48;25.93
72486;BME280;60509;47.308;-122.428;2023-05-14T07:47:47;100943.50;;;18.26;25.97
72486;BME280;60509;47.308;-122.428;2023-05-14T07:50:13;100947.62;;;16.60;27.17
72486;BME280;60509;47.308;-122.428;2023-05-14T07:52:39;100945.15;;;14.66;27.97
72486;BME280;60509;47.308;-122.428;2023-05-14T07:55:05;100941.63;;;14.77;28.63
72486;BME280;60509;47.308;-122.428;2023-05-14T07:57:31;100942.76;;;17.29;26.54
72486;BME280;60509;47.308;-122.428;2023-05-14T07:59:56;100946.13;;;18.16;26.08
72486;BME280;60509;47.308;-122.428;2023-05-14T08:02:22;100944.58;;;18.03;26.13
72486;BME280;60509;47.308;-122.428;2023-05-14T08:04:48;100950.62;;;18.24;25.88
72486;BME280;60509;47.308;-122.428;2023-05-14T08:07:14;100943.81;;;18.09;26.01
72486;BME280;60509;47.308;-122.428;2023-05-14T08:09:40;100935.74;;;18.43;25.84
72486;BME280;60509;47.308;-122.428;2023-05-14T08:12:07;100931.53;;;18.62;25.92
72486;BME280;60509;47.308;-122.428;2023-05-14T08:14:32;100934.89;;;18.38;25.84
72486;BME280;60509;47.308;-122.428;2023-05-14T08:16:58;100933.84;;;17.86;26.13
72486;BME280;60509;47.308;-122.428;2023-05-14T08:19:24;100930.84;;;18.21;26.05
72486;BME280;60509;47.308;-122.428;2023-05-14T08:21:50;100926.68;;;18.31;25.92
72486;BME280;60509;47.308;-122.428;2023-05-14T08:24:16;100924.24;;;18.47;25.77
72486;BME280;60509;47.308;-122.428;2023-05-14T08:26:42;100923.10;;;16.47;27.25
72486;BME280;60509;47.308;-122.428;2023-05-14T08:29:08;100923.50;;;14.98;27.99
72486;BME280;60509;47.308;-122.428;2023-05-14T08:31:33;100922.70;;;15.99;27.91
72486;BME280;60509;47.308;-122.428;2023-05-14T08:33:59;100913.71;;;17.38;26.47
72486;BME280;60509;47.308;-122.428;2023-05-14T08:36:25;100914.05;;;18.15;26.23
72486;BME280;60509;47.308;-122.428;2023-05-14T08:38:51;100914.11;;;18.30;26.09
72486;BME280;60509;47.308;-122.428;2023-05-14T08:41:17;100909.00;;;17.07;26.26
72486;BME280;60509;47.308;-122.428;2023-05-14T08:43:47;100910.23;;;17.88;26.11
72486;BME280;60509;47.308;-122.428;2023-05-14T08:46:11;100903.11;;;18.15;26.18
72486;BME280;60509;47.308;-122.428;2023-05-14T08:48:35;100900.35;;;18.49;26.18
72486;BME280;60509;47.308;-122.428;2023-05-14T08:51:01;100899.45;;;18.21;26.27
72486;BME280;60509;47.308;-122.428;2023-05-14T08:53:27;100899.45;;;18.03;26.43
72486;BME280;60509;47.308;-122.428;2023-05-14T08:55:53;100895.83;;;18.63;26.07
72486;BME280;60509;47.308;-122.428;2023-05-14T08:58:19;100897.99;;;18.22;26.27
72486;BME280;60509;47.308;-122.428;2023-05-14T09:00:45;100895.18;;;18.07;26.29
72486;BME280;60509;47.308;-122.428;2023-05-14T09:03:11;100896.82;;;18.18;26.36
72486;BME280;60509;47.308;-122.428;2023-05-14T09:05:36;100896.28;;;18.05;26.27
72486;BME280;60509;47.308;-122.428;2023-05-14T09:08:02;100899.85;;;17.64;26.46
72486;BME280;60509;47.308;-122.428;2023-05-14T09:10:28;100901.28;;;17.83;26.58
72486;BME280;60509;47.308;-122.428;2023-05-14T09:12:54;100894.90;;;17.86;26.44
72486;BME280;60509;47.308;-122.428;2023-05-14T09:15:21;100898.18;;;17.82;26.43
72486;BME280;60509;47.308;-122.428;2023-05-14T09:17:46;100900.79;;;18.11;26.13
72486;BME280;60509;47.308;-122.428;2023-05-14T09:20:12;100901.26;;;18.03;26.32
72486;BME280;60509;47.308;-122.428;2023-05-14T09:22:38;100902.50;;;16.65;27.21
72486;BME280;60509;47.308;-122.428;2023-05-14T09:25:06;100899.39;;;17.49;26.80
72486;BME280;60509;47.308;-122.428;2023-05-14T09:27:31;100900.45;;;17.48;26.77
72486;BME280;60509;47.308;-122.428;2023-05-14T09:29:57;100896.35;;;17.72;26.43
72486;BME280;60509;47.308;-122.428;2023-05-14T09:32:22;100893.70;;;17.72;26.37
72486;BME280;60509;47.308;-122.428;2023-05-14T09:34:48;100893.45;;;18.03;26.39
72486;BME280;60509;47.308;-122.428;2023-05-14T09:37:14;100888.71;;;18.28;26.45
72486;BME280;60509;47.308;-122.428;2023-05-14T09:39:40;100892.29;;;17.88;26.56
72486;BME280;60509;47.308;-122.428;2023-05-14T09:42:06;100894.03;;;17.90;26.47
72486;BME280;60509;47.308;-122.428;2023-05-14T09:44:32;100887.39;;;18.22;26.38
72486;BME280;60509;47.308;-122.428;2023-05-14T09:46:58;100891.91;;;17.69;26.52
72486;BME280;60509;47.308;-122.428;2023-05-14T09:49:24;100897.22;;;18.17;26.30
72486;BME280;60509;47.308;-122.428;2023-05-14T09:51:50;100902.50;;;17.25;26.75
72486;BME280;60509;47.308;-122.428;2023-05-14T09:54:15;100894.84;;;17.36;26.57
72486;BME280;60509;47.308;-122.428;2023-05-14T09:56:43;100890.07;;;17.30;26.80
72486;BME280;60509;47.308;-122.428;2023-05-14T09:59:07;100902.75;;;15.90;27.62
72486;BME280;60509;47.308;-122.428;2023-05-14T10:01:34;100889.54;;;16.19;27.58
72486;BME280;60509;47.308;-122.428;2023-05-14T10:03:59;100893.81;;;16.65;27.42
72486;BME280;60509;47.308;-122.428;2023-05-14T10:06:27;100897.52;;;15.95;27.76
72486;BME280;60509;47.308;-122.428;2023-05-14T10:08:55;100892.72;;;16.37;27.25
72486;BME280;60509;47.308;-122.428;2023-05-14T10:11:18;100897.66;;;16.07;27.90
72486;BME280;60509;47.308;-122.428;2023-05-14T10:13:49;100889.62;;;17.28;26.90
72486;BME280;60509;47.308;-122.428;2023-05-14T10:16:14;100898.60;;;15.87;27.92
72486;BME280;60509;47.308;-122.428;2023-05-14T10:18:40;100896.65;;;17.09;26.78
72486;BME280;60509;47.308;-122.428;2023-05-14T10:21:04;100885.33;;;17.60;26.65
72486;BME280;60509;47.308;-122.428;2023-05-14T10:23:27;100877.51;;;17.18;26.95
72486;BME280;60509;47.308;-122.428;2023-05-14T10:25:53;100886.32;;;17.33;26.71
72486;BME280;60509;47.308;-122.428;2023-05-14T10:28:19;100886.90;;;17.42;26.52
72486;BME280;60509;47.308;-122.428;2023-05-14T10:30:45;100883.04;;;17.47;26.49
72486;BME280;60509;47.308;-122.428;2023-05-14T10:33:12;100876.02;;;17.48;26.53
72486;BME280;60509;47.308;-122.428;2023-05-14T10:35:56;100874.42;;;17.61;26.51
72486;BME280;60509;47.308;-122.428;2023-05-14T10:38:07;100881.25;;;17.10;26.45
72486;BME280;60509;47.308;-122.428;2023-05-14T10:40:28;100877.36;;;17.69;26.40
72486;BME280;60509;47.308;-122.428;2023-05-14T10:42:58;100889.26;;;17.14;26.74
72486;BME280;60509;47.308;-122.428;2023-05-14T10:45:22;100891.43;;;17.30;26.64
72486;BME280;60509;47.308;-122.428;2023-05-14T10:47:46;100882.65;;;17.77;26.46
72486;BME280;60509;47.308;-122.428;2023-05-14T10:50:14;100878.29;;;17.20;26.41
72486;BME280;60509;47.308;-122.428;2023-05-14T10:52:40;100881.13;;;17.09;26.79
72486;BME280;60509;47.308;-122.428;2023-05-14T10:55:05;100884.84;;;17.54;26.63
72486;BME280;60509;47.308;-122.428;2023-05-14T10:57:31;100880.60;;;17.56;26.48
72486;BME280;60509;47.308;-122.428;2023-05-14T10:59:57;100881.33;;;17.46;26.63
72486;BME280;60509;47.308;-122.428;2023-05-14T11:02:24;100881.88;;;17.27;26.58
72486;BME280;60509;47.308;-122.428;2023-05-14T11:04:58;100877.42;;;17.46;26.48
72486;BME280;60509;47.308;-122.428;2023-05-14T11:07:14;100869.42;;;17.46;26.60
72486;BME280;60509;47.308;-122.428;2023-05-14T11:09:40;100872.77;;;17.63;26.56
72486;BME280;60509;47.308;-122.428;2023-05-14T11:12:07;100861.12;;;17.37;26.66
72486;BME280;60509;47.308;-122.428;2023-05-14T11:14:32;100878.09;;;17.37;26.64
72486;BME280;60509;47.308;-122.428;2023-05-14T11:16:57;100860.85;;;17.65;26.69
72486;BME280;60509;47.308;-122.428;2023-05-14T11:19:24;100868.19;;;16.86;26.86
72486;BME280;60509;47.308;-122.428;2023-05-14T11:21:49;100859.41;;;16.67;26.91
72486;BME280;60509;47.308;-122.428;2023-05-14T11:24:15;100870.04;;;16.58;27.04
72486;BME280;60509;47.308;-122.428;2023-05-14T11:26:41;100853.45;;;15.88;27.53
72486;BME280;60509;47.308;-122.428;2023-05-14T11:29:08;100877.26;;;16.17;27.37
72486;BME280;60509;47.308;-122.428;2023-05-14T11:31:34;100861.63;;;17.29;26.65
72486;BME280;60509;47.308;-122.428;2023-05-14T11:34:00;100867.94;;;18.14;26.22
72486;BME280;60509;47.308;-122.428;2023-05-14T11:36:25;100870.93;;;17.87;26.47
72486;BME280;60509;47.308;-122.428;2023-05-14T11:38:56;100850.15;;;17.34;26.69
72486;BME280;60509;47.308;-122.428;2023-05-14T11:41:17;100866.98;;;16.25;27.51
72486;BME280;60509;47.308;-122.428;2023-05-14T11:43:43;100845.81;;;16.25;27.20
72486;BME280;60509;47.308;-122.428;2023-05-14T11:46:15;100844.55;;;16.19;27.51
72486;BME280;60509;47.308;-122.428;2023-05-14T11:48:35;100867.29;;;15.94;27.63
72486;BME280;60509;47.308;-122.428;2023-05-14T11:51:01;100850.74;;;17.75;26.46
72486;BME280;60509;47.308;-122.428;2023-05-14T11:53:28;100857.49;;;17.64;26.44
72486;BME280;60509;47.308;-122.428;2023-05-14T11:55:53;100861.29;;;17.48;26.50
72486;BME280;60509;47.308;-122.428;2023-05-14T11:58:19;100864.19;;;17.09;26.63
72486;BME280;60509;47.308;-122.428;2023-05-14T12:00:45;100862.25;;;17.60;26.47
72486;BME280;60509;47.308;-122.428;2023-05-14T12:03:11;100861.24;;;17.43;26.54
72486;BME280;60509;47.308;-122.428;2023-05-14T12:05:37;100856.34;;;17.58;26.47
72486;BME280;60509;47.308;-122.428;2023-05-14T12:08:03;100864.89;;;17.61;26.41
72486;BME280;60509;47.308;-122.428;2023-05-14T12:10:29;100861.60;;;17.33;26.68
72486;BME280;60509;47.308;-122.428;2023-05-14T12:12:55;100851.75;;;17.01;26.60